sensor_id;sensor_type;location;lat;lon;timestamp;P1;durP1;ratioP1;P2;durP2;ratioP2
19205;SDS011;59358;52.134;5.596;2022-12-10T00:00:08;123.55;;;46.05;;
19205;SDS011;59358;52.134;5.596;2022-12-10T00:02:36;124.45;;;45.35;;
19205;SDS011;59358;52.134;5.596;2022-12-10T00:05:03;128.57;;;44.25;;
19205;SDS011;59358;52.134;5.596;2022-12-10T00:07:30;127.95;;;48.13;;
19205;SDS011;59358;52.134;5.596;2022-12-10T00:09:58;143.43;;;46.60;;
19205;SDS011;59358;52.134;5.596;2022-12-10T00:12:24;131.23;;;46.05;;
19205;SDS011;59358;52.134;5.596;2022-12-10T00:14:51;129.07;;;47.25;;
19205;SDS011;59358;52.134;5.596;2022-12-10T00:17:20;140.00;;;48.10;;
19205;SDS011;59358;52.134;5.596;2022-12-10T00:19:46;155.77;;;52.22;;
19205;SDS011;59358;52.134;5.596;2022-12-10T00:22:13;155.70;;;52.67;;
19205;SDS011;59358;52.134;5.596;2022-12-10T00:24:40;149.77;;;49.10;;
19205;SDS011;59358;52.134;5.596;2022-12-10T00:27:07;124.38;;;45.33;;
19205;SDS011;59358;52.134;5.596;2022-12-10T00:29:34;140.63;;;44.55;;
19205;SDS011;59358;52.134;5.596;2022-12-10T00:32:01;152.15;;;51.67;;
19205;SDS011;59358;52.134;5.596;2022-12-10T00:34:32;140.75;;;48.95;;
19205;SDS011;59358;52.134;5.596;2022-12-10T00:36:59;131.68;;;47.13;;
19205;SDS011;59358;52.134;5.596;2022-12-10T00:39:26;147.20;;;50.30;;
19205;SDS011;59358;52.134;5.596;2022-12-10T00:41:54;137.85;;;49.13;;
19205;SDS011;59358;52.134;5.596;2022-12-10T00:44:21;141.25;;;48.70;;
19205;SDS011;59358;52.134;5.596;2022-12-10T00:46:48;153.07;;;51.15;;
19205;SDS011;59358;52.134;5.596;2022-12-10T00:49:14;135.88;;;47.58;;
19205;SDS011;59358;52.134;5.596;2022-12-10T00:51:43;137.30;;;46.97;;
19205;SDS011;59358;52.134;5.596;2022-12-10T00:54:10;138.20;;;49.60;;
19205;SDS011;59358;52.134;5.596;2022-12-10T00:56:37;147.43;;;50.90;;
19205;SDS011;59358;52.134;5.596;2022-12-10T00:59:04;139.48;;;48.75;;
19205;SDS011;59358;52.134;5.596;2022-12-10T01:01:31;151.10;;;51.03;;
19205;SDS011;59358;52.134;5.596;2022-12-10T01:04:00;150.93;;;50.10;;
19205;SDS011;59358;52.134;5.596;2022-12-10T01:06:29;141.80;;;48.70;;
19205;SDS011;59358;52.134;5.596;2022-12-10T01:08:59;139.35;;;50.00;;
19205;SDS011;59358;52.134;5.596;2022-12-10T01:11:29;129.27;;;45.58;;
19205;SDS011;59358;52.134;5.596;2022-12-10T01:13:57;122.03;;;45.00;;
19205;SDS011;59358;52.134;5.596;2022-12-10T01:16:25;134.45;;;47.95;;
19205;SDS011;59358;52.134;5.596;2022-12-10T01:18:53;135.38;;;48.50;;
19205;SDS011;59358;52.134;5.596;2022-12-10T01:21:20;137.93;;;48.72;;
19205;SDS011;59358;52.134;5.596;2022-12-10T01:23:49;125.82;;;47.30;;
19205;SDS011;59358;52.134;5.596;2022-12-10T01:26:18;121.90;;;43.95;;
19205;SDS011;59358;52.134;5.596;2022-12-10T01:28:47;115.22;;;44.35;;
19205;SDS011;59358;52.134;5.596;2022-12-10T01:31:15;128.93;;;46.00;;
19205;SDS011;59358;52.134;5.596;2022-12-10T01:33:44;130.68;;;48.03;;
19205;SDS011;59358;52.134;5.596;2022-12-10T01:36:12;122.97;;;45.70;;
19205;SDS011;59358;52.134;5.596;2022-12-10T01:38:41;135.48;;;49.90;;
19205;SDS011;59358;52.134;5.596;2022-12-10T01:41:12;125.82;;;45.55;;
19205;SDS011;59358;52.134;5.596;2022-12-10T01:43:52;139.15;;;46.17;;
19205;SDS011;59358;52.134;5.596;2022-12-10T01:46:22;133.27;;;47.30;;
19205;SDS011;59358;52.134;5.596;2022-12-10T01:48:50;123.70;;;45.65;;
19205;SDS011;59358;52.134;5.596;2022-12-10T01:51:18;126.72;;;45.13;;
19205;SDS011;59358;52.134;5.596;2022-12-10T01:53:45;117.95;;;45.47;;
19205;SDS011;59358;52.134;5.596;2022-12-10T01:56:15;116.40;;;45.38;;
19205;SDS011;59358;52.134;5.596;2022-12-10T01:58:42;134.27;;;51.00;;
19205;SDS011;59358;52.134;5.596;2022-12-10T02:01:13;148.93;;;50.08;;
19205;SDS011;59358;52.134;5.596;2022-12-10T02:03:49;152.57;;;49.72;;
19205;SDS011;59358;52.134;5.596;2022-12-10T02:06:25;136.93;;;48.10;;
19205;SDS011;59358;52.134;5.596;2022-12-10T02:09:00;140.27;;;50.88;;
19205;SDS011;59358;52.134;5.596;2022-12-10T02:11:33;155.98;;;52.80;;
19205;SDS011;59358;52.134;5.596;2022-12-10T02:14:08;148.68;;;50.28;;
19205;SDS011;59358;52.134;5.596;2022-12-10T02:16:40;161.82;;;52.38;;
19205;SDS011;59358;52.134;5.596;2022-12-10T02:19:15;161.43;;;54.05;;
19205;SDS011;59358;52.134;5.596;2022-12-10T02:21:49;165.38;;;54.10;;
19205;SDS011;59358;52.134;5.596;2022-12-10T02:24:18;149.02;;;52.33;;
19205;SDS011;59358;52.134;5.596;2022-12-10T02:26:56;168.63;;;55.85;;
19205;SDS011;59358;52.134;5.596;2022-12-10T02:29:27;160.77;;;53.85;;
19205;SDS011;59358;52.134;5.596;2022-12-10T02:31:57;147.07;;;51.78;;
19205;SDS011;59358;52.134;5.596;2022-12-10T02:34:30;166.00;;;56.75;;
19205;SDS011;59358;52.134;5.596;2022-12-10T02:37:00;154.68;;;54.92;;
19205;SDS011;59358;52.134;5.596;2022-12-10T02:39:33;166.55;;;57.17;;
19205;SDS011;59358;52.134;5.596;2022-12-10T02:42:02;177.07;;;60.42;;
19205;SDS011;59358;52.134;5.596;2022-12-10T02:44:31;169.13;;;55.15;;
19205;SDS011;59358;52.134;5.596;2022-12-10T02:47:00;185.65;;;57.28;;
19205;SDS011;59358;52.134;5.596;2022-12-10T02:49:28;168.90;;;57.15;;
19205;SDS011;59358;52.134;5.596;2022-12-10T02:51:56;183.07;;;58.65;;
19205;SDS011;59358;52.134;5.596;2022-12-10T02:54:40;171.95;;;56.58;;
19205;SDS011;59358;52.134;5.596;2022-12-10T02:57:11;175.20;;;57.28;;
19205;SDS011;59358;52.134;5.596;2022-12-10T02:59:53;180.85;;;59.80;;
19205;SDS011;59358;52.134;5.596;2022-12-10T03:02:29;192.98;;;59.38;;
19205;SDS011;59358;52.134;5.596;2022-12-10T03:05:03;203.70;;;56.47;;
19205;SDS011;59358;52.134;5.596;2022-12-10T03:07:38;185.45;;;58.38;;
19205;SDS011;59358;52.134;5.596;2022-12-10T03:10:12;191.07;;;58.13;;
19205;SDS011;59358;52.134;5.596;2022-12-10T03:12:45;179.82;;;56.28;;
19205;SDS011;59358;52.134;5.596;2022-12-10T03:15:18;236.82;;;60.33;;
19205;SDS011;59358;52.134;5.596;2022-12-10T03:17:47;191.98;;;56.85;;
19205;SDS011;59358;52.134;5.596;2022-12-10T03:20:15;215.00;;;57.30;;
19205;SDS011;59358;52.134;5.596;2022-12-10T03:22:43;259.55;;;61.97;;
19205;SDS011;59358;52.134;5.596;2022-12-10T03:25:13;226.02;;;56.90;;
19205;SDS011;59358;52.134;5.596;2022-12-10T03:27:43;291.45;;;60.25;;
19205;SDS011;59358;52.134;5.596;2022-12-10T03:30:12;279.60;;;60.25;;
19205;SDS011;59358;52.134;5.596;2022-12-10T03:32:40;217.77;;;58.97;;
19205;SDS011;59358;52.134;5.596;2022-12-10T03:35:09;324.63;;;68.38;;
19205;SDS011;59358;52.134;5.596;2022-12-10T03:37:37;345.65;;;64.60;;
19205;SDS011;59358;52.134;5.596;2022-12-10T03:40:05;267.08;;;62.20;;
19205;SDS011;59358;52.134;5.596;2022-12-10T03:42:35;260.45;;;58.42;;
19205;SDS011;59358;52.134;5.596;2022-12-10T03:45:02;352.42;;;63.80;;
19205;SDS011;59358;52.134;5.596;2022-12-10T03:47:30;345.63;;;60.33;;
19205;SDS011;59358;52.134;5.596;2022-12-10T03:49:59;318.88;;;61.75;;
19205;SDS011;59358;52.134;5.596;2022-12-10T03:52:25;465.95;;;69.72;;
19205;SDS011;59358;52.134;5.596;2022-12-10T03:54:52;332.83;;;59.17;;
19205;SDS011;59358;52.134;5.596;2022-12-10T03:57:20;391.73;;;70.95;;
19205;SDS011;59358;52.134;5.596;2022-12-10T03:59:47;448.33;;;68.05;;
19205;SDS011;59358;52.134;5.596;2022-12-10T04:02:14;378.50;;;66.03;;
19205;SDS011;59358;52.134;5.596;2022-12-10T04:04:41;325.83;;;63.72;;
19205;SDS011;59358;52.134;5.596;2022-12-10T04:07:09;398.77;;;69.85;;
19205;SDS011;59358;52.134;5.596;2022-12-10T04:09:36;379.13;;;67.18;;
19205;SDS011;59358;52.134;5.596;2022-12-10T04:12:03;364.52;;;65.53;;
19205;SDS011;59358;52.134;5.596;2022-12-10T04:14:30;320.20;;;64.18;;
19205;SDS011;59358;52.134;5.596;2022-12-10T04:17:20;362.30;;;61.75;;
19205;SDS011;59358;52.134;5.596;2022-12-10T04:19:47;355.90;;;60.15;;
19205;SDS011;59358;52.134;5.596;2022-12-10T04:22:15;292.35;;;58.40;;
19205;SDS011;59358;52.134;5.596;2022-12-10T04:25:00;323.73;;;62.35;;
19205;SDS011;59358;52.134;5.596;2022-12-10T04:27:46;391.35;;;67.20;;
19205;SDS011;59358;52.134;5.596;2022-12-10T04:30:13;281.48;;;59.28;;
19205;SDS011;59358;52.134;5.596;2022-12-10T04:32:40;188.45;;;52.58;;
19205;SDS011;59358;52.134;5.596;2022-12-10T04:35:07;313.35;;;59.10;;
19205;SDS011;59358;52.134;5.596;2022-12-10T04:37:36;354.42;;;61.85;;
19205;SDS011;59358;52.134;5.596;2022-12-10T04:40:03;330.05;;;59.85;;
19205;SDS011;59358;52.134;5.596;2022-12-10T04:42:31;201.30;;;54.47;;
19205;SDS011;59358;52.134;5.596;2022-12-10T04:44:58;235.05;;;57.35;;
19205;SDS011;59358;52.134;5.596;2022-12-10T04:47:25;362.75;;;63.20;;
19205;SDS011;59358;52.134;5.596;2022-12-10T04:49:52;369.13;;;59.75;;
19205;SDS011;59358;52.134;5.596;2022-12-10T04:52:19;236.88;;;55.13;;
19205;SDS011;59358;52.134;5.596;2022-12-10T04:54:47;383.33;;;64.80;;
19205;SDS011;59358;52.134;5.596;2022-12-10T04:57:14;409.23;;;71.20;;
19205;SDS011;59358;52.134;5.596;2022-12-10T04:59:41;471.15;;;74.85;;
19205;SDS011;59358;52.134;5.596;2022-12-10T05:02:08;344.73;;;64.70;;
19205;SDS011;59358;52.134;5.596;2022-12-10T05:04:35;287.17;;;58.00;;
19205;SDS011;59358;52.134;5.596;2022-12-10T05:07:02;411.02;;;63.25;;
19205;SDS011;59358;52.134;5.596;2022-12-10T05:09:30;354.40;;;61.38;;
19205;SDS011;59358;52.134;5.596;2022-12-10T05:11:58;295.98;;;59.60;;
19205;SDS011;59358;52.134;5.596;2022-12-10T05:14:25;382.63;;;64.53;;
19205;SDS011;59358;52.134;5.596;2022-12-10T05:16:52;246.18;;;59.15;;
19205;SDS011;59358;52.134;5.596;2022-12-10T05:19:19;386.50;;;67.15;;
19205;SDS011;59358;52.134;5.596;2022-12-10T05:21:47;417.80;;;61.97;;
19205;SDS011;59358;52.134;5.596;2022-12-10T05:24:31;307.42;;;55.80;;
19205;SDS011;59358;52.134;5.596;2022-12-10T05:27:00;272.38;;;55.83;;
19205;SDS011;59358;52.134;5.596;2022-12-10T05:29:27;275.05;;;57.67;;
19205;SDS011;59358;52.134;5.596;2022-12-10T05:31:54;276.83;;;56.35;;
19205;SDS011;59358;52.134;5.596;2022-12-10T05:34:20;286.75;;;57.75;;
19205;SDS011;59358;52.134;5.596;2022-12-10T05:36:47;329.73;;;60.03;;
19205;SDS011;59358;52.134;5.596;2022-12-10T05:39:15;263.73;;;55.78;;
19205;SDS011;59358;52.134;5.596;2022-12-10T05:41:42;332.45;;;58.70;;
19205;SDS011;59358;52.134;5.596;2022-12-10T05:44:12;388.58;;;59.72;;
19205;SDS011;59358;52.134;5.596;2022-12-10T05:46:38;326.75;;;53.47;;
19205;SDS011;59358;52.134;5.596;2022-12-10T05:49:06;260.70;;;57.10;;
19205;SDS011;59358;52.134;5.596;2022-12-10T05:51:34;209.82;;;52.47;;
19205;SDS011;59358;52.134;5.596;2022-12-10T05:54:03;282.15;;;54.08;;
19205;SDS011;59358;52.134;5.596;2022-12-10T05:56:31;378.65;;;63.58;;
19205;SDS011;59358;52.134;5.596;2022-12-10T05:58:58;310.23;;;60.95;;
19205;SDS011;59358;52.134;5.596;2022-12-10T06:01:29;263.85;;;58.53;;
19205;SDS011;59358;52.134;5.596;2022-12-10T06:04:01;350.77;;;64.00;;
19205;SDS011;59358;52.134;5.596;2022-12-10T06:06:31;388.65;;;66.20;;
19205;SDS011;59358;52.134;5.596;2022-12-10T06:08:59;333.30;;;59.15;;
19205;SDS011;59358;52.134;5.596;2022-12-10T06:11:26;329.48;;;55.50;;
19205;SDS011;59358;52.134;5.596;2022-12-10T06:13:55;398.95;;;67.72;;
19205;SDS011;59358;52.134;5.596;2022-12-10T06:16:24;350.20;;;66.80;;
19205;SDS011;59358;52.134;5.596;2022-12-10T06:18:53;280.35;;;56.80;;
19205;SDS011;59358;52.134;5.596;2022-12-10T06:21:21;321.00;;;63.53;;
19205;SDS011;59358;52.134;5.596;2022-12-10T06:23:48;352.13;;;64.32;;
19205;SDS011;59358;52.134;5.596;2022-12-10T06:26:17;357.13;;;71.25;;
19205;SDS011;59358;52.134;5.596;2022-12-10T06:28:46;409.60;;;78.22;;
19205;SDS011;59358;52.134;5.596;2022-12-10T06:31:13;424.45;;;75.05;;
19205;SDS011;59358;52.134;5.596;2022-12-10T06:33:41;437.38;;;81.30;;
19205;SDS011;59358;52.134;5.596;2022-12-10T06:36:10;356.75;;;77.55;;
19205;SDS011;59358;52.134;5.596;2022-12-10T06:38:38;452.00;;;87.80;;
19205;SDS011;59358;52.134;5.596;2022-12-10T06:41:06;460.05;;;86.78;;
19205;SDS011;59358;52.134;5.596;2022-12-10T06:43:34;458.95;;;93.72;;
19205;SDS011;59358;52.134;5.596;2022-12-10T06:46:03;419.27;;;85.93;;
19205;SDS011;59358;52.134;5.596;2022-12-10T06:48:31;447.05;;;85.15;;
19205;SDS011;59358;52.134;5.596;2022-12-10T06:50:58;399.08;;;78.07;;
19205;SDS011;59358;52.134;5.596;2022-12-10T06:53:27;409.63;;;80.75;;
19205;SDS011;59358;52.134;5.596;2022-12-10T06:55:53;592.17;;;95.35;;
19205;SDS011;59358;52.134;5.596;2022-12-10T06:58:23;533.85;;;101.45;;
19205;SDS011;59358;52.134;5.596;2022-12-10T07:00:50;494.95;;;96.93;;
19205;SDS011;59358;52.134;5.596;2022-12-10T07:03:17;460.35;;;80.68;;
19205;SDS011;59358;52.134;5.596;2022-12-10T07:05:44;462.95;;;77.20;;
19205;SDS011;59358;52.134;5.596;2022-12-10T07:08:10;432.05;;;83.47;;
19205;SDS011;59358;52.134;5.596;2022-12-10T07:10:39;596.60;;;101.50;;
19205;SDS011;59358;52.134;5.596;2022-12-10T07:13:05;568.95;;;98.13;;
19205;SDS011;59358;52.134;5.596;2022-12-10T07:15:32;387.67;;;69.85;;
19205;SDS011;59358;52.134;5.596;2022-12-10T07:17:59;371.27;;;68.72;;
19205;SDS011;59358;52.134;5.596;2022-12-10T07:20:26;397.70;;;66.35;;
19205;SDS011;59358;52.134;5.596;2022-12-10T07:22:53;526.45;;;93.57;;
19205;SDS011;59358;52.134;5.596;2022-12-10T07:25:20;322.60;;;73.50;;
19205;SDS011;59358;52.134;5.596;2022-12-10T07:27:48;438.05;;;85.18;;
19205;SDS011;59358;52.134;5.596;2022-12-10T07:30:15;476.30;;;95.10;;
19205;SDS011;59358;52.134;5.596;2022-12-10T07:32:42;585.47;;;97.22;;
19205;SDS011;59358;52.134;5.596;2022-12-10T07:35:09;508.15;;;94.07;;
19205;SDS011;59358;52.134;5.596;2022-12-10T07:37:36;505.88;;;94.47;;
19205;SDS011;59358;52.134;5.596;2022-12-10T07:40:03;549.35;;;89.85;;
19205;SDS011;59358;52.134;5.596;2022-12-10T07:42:31;574.22;;;101.50;;
19205;SDS011;59358;52.134;5.596;2022-12-10T07:44:59;516.42;;;91.90;;
19205;SDS011;59358;52.134;5.596;2022-12-10T07:47:26;583.60;;;102.07;;
19205;SDS011;59358;52.134;5.596;2022-12-10T07:49:53;508.70;;;94.57;;
19205;SDS011;59358;52.134;5.596;2022-12-10T07:52:20;572.60;;;105.18;;
19205;SDS011;59358;52.134;5.596;2022-12-10T07:54:46;539.25;;;98.57;;
19205;SDS011;59358;52.134;5.596;2022-12-10T07:57:13;715.13;;;121.65;;
19205;SDS011;59358;52.134;5.596;2022-12-10T07:59:40;656.33;;;118.93;;
19205;SDS011;59358;52.134;5.596;2022-12-10T08:02:09;532.60;;;97.07;;
19205;SDS011;59358;52.134;5.596;2022-12-10T08:04:36;457.92;;;87.10;;
19205;SDS011;59358;52.134;5.596;2022-12-10T08:07:03;476.73;;;85.13;;
19205;SDS011;59358;52.134;5.596;2022-12-10T08:09:30;564.20;;;101.65;;
19205;SDS011;59358;52.134;5.596;2022-12-10T08:11:57;559.53;;;103.80;;
19205;SDS011;59358;52.134;5.596;2022-12-10T08:14:24;536.58;;;103.97;;
19205;SDS011;59358;52.134;5.596;2022-12-10T08:16:51;441.13;;;87.90;;
19205;SDS011;59358;52.134;5.596;2022-12-10T08:19:20;444.27;;;87.45;;
19205;SDS011;59358;52.134;5.596;2022-12-10T08:21:48;488.85;;;92.00;;
19205;SDS011;59358;52.134;5.596;2022-12-10T08:24:15;449.48;;;84.47;;
19205;SDS011;59358;52.134;5.596;2022-12-10T08:26:42;438.75;;;83.93;;
19205;SDS011;59358;52.134;5.596;2022-12-10T08:29:08;364.33;;;70.05;;
19205;SDS011;59358;52.134;5.596;2022-12-10T08:31:36;278.60;;;63.38;;
19205;SDS011;59358;52.134;5.596;2022-12-10T08:34:03;320.77;;;64.68;;
19205;SDS011;59358;52.134;5.596;2022-12-10T08:36:32;281.80;;;61.97;;
19205;SDS011;59358;52.134;5.596;2022-12-10T08:38:59;271.25;;;59.95;;
19205;SDS011;59358;52.134;5.596;2022-12-10T08:41:26;254.60;;;57.65;;
19205;SDS011;59358;52.134;5.596;2022-12-10T08:43:53;218.07;;;55.53;;
19205;SDS011;59358;52.134;5.596;2022-12-10T08:46:20;287.20;;;60.25;;
19205;SDS011;59358;52.134;5.596;2022-12-10T08:48:49;224.25;;;55.13;;
19205;SDS011;59358;52.134;5.596;2022-12-10T08:51:16;210.52;;;54.80;;
19205;SDS011;59358;52.134;5.596;2022-12-10T08:53:45;217.55;;;53.22;;
19205;SDS011;59358;52.134;5.596;2022-12-10T08:56:12;224.63;;;56.35;;
19205;SDS011;59358;52.134;5.596;2022-12-10T08:58:40;214.82;;;56.40;;
19205;SDS011;59358;52.134;5.596;2022-12-10T09:01:07;221.55;;;55.17;;
19205;SDS011;59358;52.134;5.596;2022-12-10T09:03:36;197.95;;;53.00;;
19205;SDS011;59358;52.134;5.596;2022-12-10T09:06:04;210.95;;;53.25;;
19205;SDS011;59358;52.134;5.596;2022-12-10T09:08:32;218.60;;;53.30;;
19205;SDS011;59358;52.134;5.596;2022-12-10T09:11:05;223.15;;;53.92;;
19205;SDS011;59358;52.134;5.596;2022-12-10T09:13:33;188.20;;;46.92;;
19205;SDS011;59358;52.134;5.596;2022-12-10T09:16:00;214.98;;;49.88;;
19205;SDS011;59358;52.134;5.596;2022-12-10T09:18:27;249.73;;;55.30;;
19205;SDS011;59358;52.134;5.596;2022-12-10T09:20:54;229.05;;;53.45;;
19205;SDS011;59358;52.134;5.596;2022-12-10T09:23:21;200.63;;;49.78;;
19205;SDS011;59358;52.134;5.596;2022-12-10T09:25:48;215.38;;;51.38;;
19205;SDS011;59358;52.134;5.596;2022-12-10T09:28:16;215.98;;;50.72;;
19205;SDS011;59358;52.134;5.596;2022-12-10T09:30:43;206.20;;;51.42;;
19205;SDS011;59358;52.134;5.596;2022-12-10T09:33:10;209.60;;;51.83;;
19205;SDS011;59358;52.134;5.596;2022-12-10T09:35:40;187.77;;;50.78;;
19205;SDS011;59358;52.134;5.596;2022-12-10T09:38:08;201.00;;;52.25;;
19205;SDS011;59358;52.134;5.596;2022-12-10T09:40:36;223.85;;;54.63;;
19205;SDS011;59358;52.134;5.596;2022-12-10T09:43:12;316.92;;;64.95;;
19205;SDS011;59358;52.134;5.596;2022-12-10T09:45:46;280.00;;;63.88;;
19205;SDS011;59358;52.134;5.596;2022-12-10T09:48:25;257.38;;;58.38;;
19205;SDS011;59358;52.134;5.596;2022-12-10T09:51:08;265.25;;;63.55;;
19205;SDS011;59358;52.134;5.596;2022-12-10T09:53:39;300.08;;;66.53;;
19205;SDS011;59358;52.134;5.596;2022-12-10T09:56:10;352.23;;;71.38;;
19205;SDS011;59358;52.134;5.596;2022-12-10T09:58:46;287.88;;;64.88;;
19205;SDS011;59358;52.134;5.596;2022-12-10T10:01:16;270.33;;;62.70;;
19205;SDS011;59358;52.134;5.596;2022-12-10T10:03:46;271.60;;;66.05;;
19205;SDS011;59358;52.134;5.596;2022-12-10T10:06:14;242.02;;;61.03;;
19205;SDS011;59358;52.134;5.596;2022-12-10T10:08:41;223.48;;;55.78;;
19205;SDS011;59358;52.134;5.596;2022-12-10T10:11:14;246.70;;;58.67;;
19205;SDS011;59358;52.134;5.596;2022-12-10T10:13:44;231.43;;;57.67;;
19205;SDS011;59358;52.134;5.596;2022-12-10T10:16:22;228.50;;;60.50;;
19205;SDS011;59358;52.134;5.596;2022-12-10T10:18:52;223.23;;;56.95;;
19205;SDS011;59358;52.134;5.596;2022-12-10T10:21:24;237.10;;;56.70;;
19205;SDS011;59358;52.134;5.596;2022-12-10T10:23:54;279.88;;;63.15;;
19205;SDS011;59358;52.134;5.596;2022-12-10T10:26:23;379.33;;;71.20;;
19205;SDS011;59358;52.134;5.596;2022-12-10T10:28:52;274.40;;;60.92;;
19205;SDS011;59358;52.134;5.596;2022-12-10T10:31:24;259.65;;;60.45;;
19205;SDS011;59358;52.134;5.596;2022-12-10T10:33:53;292.30;;;61.45;;
19205;SDS011;59358;52.134;5.596;2022-12-10T10:36:22;211.32;;;54.00;;
19205;SDS011;59358;52.134;5.596;2022-12-10T10:38:51;223.57;;;56.88;;
19205;SDS011;59358;52.134;5.596;2022-12-10T10:41:19;215.85;;;52.78;;
19205;SDS011;59358;52.134;5.596;2022-12-10T10:43:46;226.60;;;50.80;;
19205;SDS011;59358;52.134;5.596;2022-12-10T10:46:14;212.85;;;54.47;;
19205;SDS011;59358;52.134;5.596;2022-12-10T10:48:45;198.57;;;49.85;;
19205;SDS011;59358;52.134;5.596;2022-12-10T10:51:17;195.65;;;53.42;;
19205;SDS011;59358;52.134;5.596;2022-12-10T10:53:48;213.38;;;49.70;;
19205;SDS011;59358;52.134;5.596;2022-12-10T10:56:17;222.73;;;50.53;;
19205;SDS011;59358;52.134;5.596;2022-12-10T10:58:51;194.75;;;48.53;;
19205;SDS011;59358;52.134;5.596;2022-12-10T11:01:21;163.05;;;44.00;;
19205;SDS011;59358;52.134;5.596;2022-12-10T11:03:53;181.00;;;47.28;;
19205;SDS011;59358;52.134;5.596;2022-12-10T11:06:26;157.95;;;43.53;;
19205;SDS011;59358;52.134;5.596;2022-12-10T11:08:57;196.75;;;48.83;;
19205;SDS011;59358;52.134;5.596;2022-12-10T11:11:29;226.07;;;51.22;;
19205;SDS011;59358;52.134;5.596;2022-12-10T11:14:12;286.67;;;52.65;;
19205;SDS011;59358;52.134;5.596;2022-12-10T11:16:41;251.70;;;47.50;;
19205;SDS011;59358;52.134;5.596;2022-12-10T11:19:16;176.27;;;42.72;;
19205;SDS011;59358;52.134;5.596;2022-12-10T11:21:47;202.93;;;42.92;;
19205;SDS011;59358;52.134;5.596;2022-12-10T11:24:15;192.85;;;43.75;;
19205;SDS011;59358;52.134;5.596;2022-12-10T11:26:48;195.95;;;46.50;;
19205;SDS011;59358;52.134;5.596;2022-12-10T11:29:31;195.15;;;54.67;;
19205;SDS011;59358;52.134;5.596;2022-12-10T11:32:12;173.95;;;56.38;;
19205;SDS011;59358;52.134;5.596;2022-12-10T11:34:52;196.93;;;54.22;;
19205;SDS011;59358;52.134;5.596;2022-12-10T11:37:29;194.43;;;51.22;;
19205;SDS011;59358;52.134;5.596;2022-12-10T11:40:02;182.07;;;44.83;;
19205;SDS011;59358;52.134;5.596;2022-12-10T11:42:41;167.18;;;47.17;;
19205;SDS011;59358;52.134;5.596;2022-12-10T11:45:18;160.63;;;44.97;;
19205;SDS011;59358;52.134;5.596;2022-12-10T11:47:50;185.65;;;43.05;;
19205;SDS011;59358;52.134;5.596;2022-12-10T11:50:35;148.52;;;51.60;;
19205;SDS011;59358;52.134;5.596;2022-12-10T11:53:11;138.38;;;40.85;;
19205;SDS011;59358;52.134;5.596;2022-12-10T11:55:46;143.43;;;44.38;;
19205;SDS011;59358;52.134;5.596;2022-12-10T11:58:24;197.05;;;43.67;;
19205;SDS011;59358;52.134;5.596;2022-12-10T12:01:04;173.98;;;41.65;;
19205;SDS011;59358;52.134;5.596;2022-12-10T12:03:55;190.57;;;40.13;;
19205;SDS011;59358;52.134;5.596;2022-12-10T12:06:38;196.00;;;42.45;;
19205;SDS011;59358;52.134;5.596;2022-12-10T12:09:24;145.77;;;40.53;;
19205;SDS011;59358;52.134;5.596;2022-12-10T12:12:06;142.52;;;41.60;;
19205;SDS011;59358;52.134;5.596;2022-12-10T12:14:43;145.05;;;38.78;;
19205;SDS011;59358;52.134;5.596;2022-12-10T12:17:16;198.88;;;39.50;;
19205;SDS011;59358;52.134;5.596;2022-12-10T12:19:46;187.00;;;36.50;;
19205;SDS011;59358;52.134;5.596;2022-12-10T12:22:21;175.52;;;39.17;;
19205;SDS011;59358;52.134;5.596;2022-12-10T12:25:02;135.35;;;40.05;;
19205;SDS011;59358;52.134;5.596;2022-12-10T12:27:33;131.52;;;39.03;;
19205;SDS011;59358;52.134;5.596;2022-12-10T12:30:05;142.82;;;39.90;;
19205;SDS011;59358;52.134;5.596;2022-12-10T12:32:46;138.45;;;35.35;;
19205;SDS011;59358;52.134;5.596;2022-12-10T12:35:18;130.38;;;35.45;;
19205;SDS011;59358;52.134;5.596;2022-12-10T12:37:53;154.57;;;37.78;;
19205;SDS011;59358;52.134;5.596;2022-12-10T12:40:27;156.50;;;41.15;;
19205;SDS011;59358;52.134;5.596;2022-12-10T12:42:57;136.90;;;37.22;;
19205;SDS011;59358;52.134;5.596;2022-12-10T12:45:30;130.90;;;36.22;;
19205;SDS011;59358;52.134;5.596;2022-12-10T12:48:01;125.80;;;37.63;;
19205;SDS011;59358;52.134;5.596;2022-12-10T12:50:38;125.57;;;35.78;;
19205;SDS011;59358;52.134;5.596;2022-12-10T12:53:12;130.05;;;37.67;;
19205;SDS011;59358;52.134;5.596;2022-12-10T12:55:44;123.40;;;35.55;;
19205;SDS011;59358;52.134;5.596;2022-12-10T12:58:21;142.90;;;38.55;;
19205;SDS011;59358;52.134;5.596;2022-12-10T13:00:55;123.05;;;37.80;;
19205;SDS011;59358;52.134;5.596;2022-12-10T13:03:29;124.75;;;36.58;;
19205;SDS011;59358;52.134;5.596;2022-12-10T13:06:14;127.28;;;33.40;;
19205;SDS011;59358;52.134;5.596;2022-12-10T13:08:46;168.10;;;39.05;;
19205;SDS011;59358;52.134;5.596;2022-12-10T13:11:30;140.32;;;33.72;;
19205;SDS011;59358;52.134;5.596;2022-12-10T13:17:00;138.77;;;36.25;;
19205;SDS011;59358;52.134;5.596;2022-12-10T13:19:33;145.57;;;36.20;;
19205;SDS011;59358;52.134;5.596;2022-12-10T13:22:08;118.50;;;38.95;;
19205;SDS011;59358;52.134;5.596;2022-12-10T13:24:44;132.48;;;37.90;;
19205;SDS011;59358;52.134;5.596;2022-12-10T13:27:39;111.63;;;34.85;;
19205;SDS011;59358;52.134;5.596;2022-12-10T13:30:26;102.63;;;33.10;;
19205;SDS011;59358;52.134;5.596;2022-12-10T13:33:03;125.68;;;36.42;;
19205;SDS011;59358;52.134;5.596;2022-12-10T13:35:41;132.32;;;36.13;;
19205;SDS011;59358;52.134;5.596;2022-12-10T13:38:17;147.75;;;37.20;;
19205;SDS011;59358;52.134;5.596;2022-12-10T13:40:56;139.43;;;32.42;;
19205;SDS011;59358;52.134;5.596;2022-12-10T13:43:51;137.50;;;35.22;;
19205;SDS011;59358;52.134;5.596;2022-12-10T13:46:51;99.55;;;35.53;;
19205;SDS011;59358;52.134;5.596;2022-12-10T13:49:24;129.40;;;37.05;;
19205;SDS011;59358;52.134;5.596;2022-12-10T13:51:57;157.25;;;35.58;;
19205;SDS011;59358;52.134;5.596;2022-12-10T13:57:30;135.75;;;34.08;;
19205;SDS011;59358;52.134;5.596;2022-12-10T14:00:17;127.03;;;32.55;;
19205;SDS011;59358;52.134;5.596;2022-12-10T14:03:02;107.30;;;33.40;;
19205;SDS011;59358;52.134;5.596;2022-12-10T14:06:04;161.05;;;32.08;;
19205;SDS011;59358;52.134;5.596;2022-12-10T14:08:42;164.88;;;37.85;;
19205;SDS011;59358;52.134;5.596;2022-12-10T14:11:22;128.52;;;35.88;;
19205;SDS011;59358;52.134;5.596;2022-12-10T14:13:54;135.38;;;32.97;;
19205;SDS011;59358;52.134;5.596;2022-12-10T14:16:24;116.82;;;33.75;;
19205;SDS011;59358;52.134;5.596;2022-12-10T14:18:53;133.50;;;33.35;;
19205;SDS011;59358;52.134;5.596;2022-12-10T14:21:23;119.05;;;32.55;;
19205;SDS011;59358;52.134;5.596;2022-12-10T14:23:51;125.18;;;32.15;;
19205;SDS011;59358;52.134;5.596;2022-12-10T14:26:20;108.82;;;31.75;;
19205;SDS011;59358;52.134;5.596;2022-12-10T14:28:48;121.00;;;34.08;;
19205;SDS011;59358;52.134;5.596;2022-12-10T14:31:18;125.65;;;35.58;;
19205;SDS011;59358;52.134;5.596;2022-12-10T14:33:48;102.03;;;32.53;;